首页
METAR-TAF:

METAR-TAF

机场 :

拉奥罗拉国际机场

瓜地馬拉, 危地马拉

纬度: 14-35N, 经度: 090-31W, 海拔: 1489米

当前天气观测

该预报发布于32分钟前的01:30 UTC
风速8节,风向北转东北
温度
气压
能見度: 8000
多云层高于1800英尺

METAR: MGGT 230130Z 02008KT 8000 BKN018 HZ

时间: 20:02 (02:02 UTC)

预报

该预报发布于2小时和32分钟前的23:30 UTC
预报有效从23日的 00点(UTC)到 23日的 24点(UTC)
风速3节,风向多变
能見度: 8000
少量云层高于1600英尺
成为
从 23日的 06点(UTC)到 23日的 08点(UTC)
能見度: 6000
多云层高于1200英尺
成为
从 23日的 15点(UTC)到 23日的 17点(UTC)
风速8节,风向
少量云层高于1800英尺
短暂存在
从 23日的 20点(UTC)到 23日的 24点(UTC)
散云层高于2000英尺

TAF: MGGT 222330Z 2300/2324 VRB03KT 8000 FEW016 TX24/2320Z TN11/2312Z BECMG 2306/2308 6000 BKN012 BECMG 2315/2317 18008KT FEW018 TEMPO 2320/2324 SCT020

超过4000个机场的气象观测和天气预报(METAR&TAF报告)。

可查询的气象台以黄色和红色小点在地图上表示。

将鼠标移到小点上方,可查看气象台名称。

然后点击查看天气观测和预报。

如需切换地图:点击带黑十字的绿色按钮放大地图;点击带横线的绿色按钮缩小地图;或者点击绿色箭头查看邻近地区的地图。


METAR-TAF: